sensor_id;sensor_type;location;lat;lon;timestamp;temperature;humidity
63202;DHT22;49296;48.188;11.566;2022-08-19T00:00:15;19.18;80.43
63202;DHT22;49296;48.188;11.566;2022-08-19T00:02:42;19.20;80.37
63202;DHT22;49296;48.188;11.566;2022-08-19T00:05:09;19.20;80.43
63202;DHT22;49296;48.188;11.566;2022-08-19T00:07:36;19.34;80.07
63202;DHT22;49296;48.188;11.566;2022-08-19T00:10:04;19.29;80.13
63202;DHT22;49296;48.188;11.566;2022-08-19T00:12:30;19.25;80.09
63202;DHT22;49296;48.188;11.566;2022-08-19T00:14:57;19.37;79.79
63202;DHT22;49296;48.188;11.566;2022-08-19T00:17:25;19.23;80.12
63202;DHT22;49296;48.188;11.566;2022-08-19T00:19:52;19.27;79.88
63202;DHT22;49296;48.188;11.566;2022-08-19T00:22:18;19.16;80.61
63202;DHT22;49296;48.188;11.566;2022-08-19T00:24:45;19.11;80.46
63202;DHT22;49296;48.188;11.566;2022-08-19T00:27:12;19.14;80.67
63202;DHT22;49296;48.188;11.566;2022-08-19T00:29:38;19.23;80.01
63202;DHT22;49296;48.188;11.566;2022-08-19T00:32:05;19.26;79.94
63202;DHT22;49296;48.188;11.566;2022-08-19T00:34:33;19.27;80.05
63202;DHT22;49296;48.188;11.566;2022-08-19T00:37:00;18.97;81.16
63202;DHT22;49296;48.188;11.566;2022-08-19T00:39:26;19.20;80.53
63202;DHT22;49296;48.188;11.566;2022-08-19T00:41:53;19.11;80.52
63202;DHT22;49296;48.188;11.566;2022-08-19T00:44:20;19.14;80.66
63202;DHT22;49296;48.188;11.566;2022-08-19T00:46:47;19.14;80.33
63202;DHT22;49296;48.188;11.566;2022-08-19T00:49:16;19.08;80.63
63202;DHT22;49296;48.188;11.566;2022-08-19T00:51:47;19.09;80.70
63202;DHT22;49296;48.188;11.566;2022-08-19T00:54:15;19.01;80.64
63202;DHT22;49296;48.188;11.566;2022-08-19T00:56:42;19.16;80.34
63202;DHT22;49296;48.188;11.566;2022-08-19T00:59:08;19.18;80.19
63202;DHT22;49296;48.188;11.566;2022-08-19T01:01:35;19.08;80.53
63202;DHT22;49296;48.188;11.566;2022-08-19T01:04:02;19.19;80.28
63202;DHT22;49296;48.188;11.566;2022-08-19T01:06:28;19.27;80.03
63202;DHT22;49296;48.188;11.566;2022-08-19T01:08:58;19.36;79.45
63202;DHT22;49296;48.188;11.566;2022-08-19T01:11:24;19.42;79.40
63202;DHT22;49296;48.188;11.566;2022-08-19T01:13:51;19.06;80.59
63202;DHT22;49296;48.188;11.566;2022-08-19T01:16:18;19.15;80.38
63202;DHT22;49296;48.188;11.566;2022-08-19T01:18:46;19.19;80.32
63202;DHT22;49296;48.188;11.566;2022-08-19T01:21:15;19.20;79.99
63202;DHT22;49296;48.188;11.566;2022-08-19T01:23:45;19.09;80.63
63202;DHT22;49296;48.188;11.566;2022-08-19T01:26:13;19.16;80.15
63202;DHT22;49296;48.188;11.566;2022-08-19T01:28:40;19.30;80.01
63202;DHT22;49296;48.188;11.566;2022-08-19T01:31:07;19.25;80.01
63202;DHT22;49296;48.188;11.566;2022-08-19T01:33:35;19.20;80.12
63202;DHT22;49296;48.188;11.566;2022-08-19T01:36:06;19.05;80.57
63202;DHT22;49296;48.188;11.566;2022-08-19T01:38:35;19.19;80.20
63202;DHT22;49296;48.188;11.566;2022-08-19T01:41:03;19.04;80.64
63202;DHT22;49296;48.188;11.566;2022-08-19T01:43:31;19.19;80.31
63202;DHT22;49296;48.188;11.566;2022-08-19T01:45:57;19.29;79.73
63202;DHT22;49296;48.188;11.566;2022-08-19T01:48:24;19.30;79.79
63202;DHT22;49296;48.188;11.566;2022-08-19T01:50:50;19.34;79.69
63202;DHT22;49296;48.188;11.566;2022-08-19T01:53:17;19.23;79.91
63202;DHT22;49296;48.188;11.566;2022-08-19T01:55:43;19.26;79.99
63202;DHT22;49296;48.188;11.566;2022-08-19T01:58:15;19.26;79.87
63202;DHT22;49296;48.188;11.566;2022-08-19T02:00:43;19.25;80.03
63202;DHT22;49296;48.188;11.566;2022-08-19T02:03:10;19.09;80.65
63202;DHT22;49296;48.188;11.566;2022-08-19T02:05:37;19.12;80.19
63202;DHT22;49296;48.188;11.566;2022-08-19T02:08:04;19.09;80.74
63202;DHT22;49296;48.188;11.566;2022-08-19T02:10:30;19.14;80.26
63202;DHT22;49296;48.188;11.566;2022-08-19T02:12:57;19.14;80.37
63202;DHT22;49296;48.188;11.566;2022-08-19T02:15:25;19.09;80.43
63202;DHT22;49296;48.188;11.566;2022-08-19T02:17:51;19.11;80.62
63202;DHT22;49296;48.188;11.566;2022-08-19T02:20:18;19.15;80.30
63202;DHT22;49296;48.188;11.566;2022-08-19T02:22:44;18.98;80.81
63202;DHT22;49296;48.188;11.566;2022-08-19T02:25:12;19.05;80.55
63202;DHT22;49296;48.188;11.566;2022-08-19T02:27:39;19.08;80.31
63202;DHT22;49296;48.188;11.566;2022-08-19T02:30:06;19.25;79.98
63202;DHT22;49296;48.188;11.566;2022-08-19T02:32:35;19.22;79.75
63202;DHT22;49296;48.188;11.566;2022-08-19T02:35:02;19.15;80.10
63202;DHT22;49296;48.188;11.566;2022-08-19T02:37:28;19.19;79.97
63202;DHT22;49296;48.188;11.566;2022-08-19T02:40:12;19.19;79.67
63202;DHT22;49296;48.188;11.566;2022-08-19T02:42:39;19.22;79.68
63202;DHT22;49296;48.188;11.566;2022-08-19T02:45:08;19.19;79.67
63202;DHT22;49296;48.188;11.566;2022-08-19T02:47:36;19.15;80.04
63202;DHT22;49296;48.188;11.566;2022-08-19T02:50:03;19.23;79.74
63202;DHT22;49296;48.188;11.566;2022-08-19T02:52:30;19.25;79.47
63202;DHT22;49296;48.188;11.566;2022-08-19T02:54:57;19.15;79.66
63202;DHT22;49296;48.188;11.566;2022-08-19T02:57:24;19.29;79.51
63202;DHT22;49296;48.188;11.566;2022-08-19T02:59:51;19.33;79.04
63202;DHT22;49296;48.188;11.566;2022-08-19T03:02:17;19.29;79.14
63202;DHT22;49296;48.188;11.566;2022-08-19T03:04:45;19.20;79.53
63202;DHT22;49296;48.188;11.566;2022-08-19T03:07:12;19.25;79.35
63202;DHT22;49296;48.188;11.566;2022-08-19T03:09:39;19.04;79.95
63202;DHT22;49296;48.188;11.566;2022-08-19T03:12:08;19.14;79.65
63202;DHT22;49296;48.188;11.566;2022-08-19T03:14:35;19.06;79.81
63202;DHT22;49296;48.188;11.566;2022-08-19T03:17:02;19.02;80.03
63202;DHT22;49296;48.188;11.566;2022-08-19T03:19:29;18.95;80.23
63202;DHT22;49296;48.188;11.566;2022-08-19T03:21:57;18.91;80.62
63202;DHT22;49296;48.188;11.566;2022-08-19T03:24:24;18.91;80.54
63202;DHT22;49296;48.188;11.566;2022-08-19T03:26:52;19.05;80.02
63202;DHT22;49296;48.188;11.566;2022-08-19T03:29:20;19.04;80.28
63202;DHT22;49296;48.188;11.566;2022-08-19T03:31:46;19.22;79.59
63202;DHT22;49296;48.188;11.566;2022-08-19T03:34:14;19.25;79.35
63202;DHT22;49296;48.188;11.566;2022-08-19T03:36:42;19.05;79.96
63202;DHT22;49296;48.188;11.566;2022-08-19T03:39:10;18.92;80.61
63202;DHT22;49296;48.188;11.566;2022-08-19T03:41:38;18.92;80.78
63202;DHT22;49296;48.188;11.566;2022-08-19T03:44:05;18.97;80.60
63202;DHT22;49296;48.188;11.566;2022-08-19T03:46:33;18.80;81.07
63202;DHT22;49296;48.188;11.566;2022-08-19T03:49:01;18.97;80.56
63202;DHT22;49296;48.188;11.566;2022-08-19T03:51:29;19.14;80.21
63202;DHT22;49296;48.188;11.566;2022-08-19T03:53:57;19.18;80.12
63202;DHT22;49296;48.188;11.566;2022-08-19T03:56:25;18.95;80.45
63202;DHT22;49296;48.188;11.566;2022-08-19T03:58:53;19.11;80.21
63202;DHT22;49296;48.188;11.566;2022-08-19T04:01:21;19.19;79.89
63202;DHT22;49296;48.188;11.566;2022-08-19T04:03:48;19.11;79.98
63202;DHT22;49296;48.188;11.566;2022-08-19T04:06:15;18.98;80.59
63202;DHT22;49296;48.188;11.566;2022-08-19T04:08:43;18.92;80.99
63202;DHT22;49296;48.188;11.566;2022-08-19T04:11:10;19.11;80.42
63202;DHT22;49296;48.188;11.566;2022-08-19T04:13:38;19.14;80.30
63202;DHT22;49296;48.188;11.566;2022-08-19T04:16:05;19.27;79.89
63202;DHT22;49296;48.188;11.566;2022-08-19T04:18:32;19.25;79.91
63202;DHT22;49296;48.188;11.566;2022-08-19T04:20:59;19.29;79.59
63202;DHT22;49296;48.188;11.566;2022-08-19T04:23:25;19.49;79.08
63202;DHT22;49296;48.188;11.566;2022-08-19T04:25:53;19.14;80.13
63202;DHT22;49296;48.188;11.566;2022-08-19T04:28:20;19.26;79.85
63202;DHT22;49296;48.188;11.566;2022-08-19T04:30:49;19.46;79.26
63202;DHT22;49296;48.188;11.566;2022-08-19T04:33:16;19.25;79.71
63202;DHT22;49296;48.188;11.566;2022-08-19T04:35:44;19.01;80.56
63202;DHT22;49296;48.188;11.566;2022-08-19T04:38:11;19.06;80.49
63202;DHT22;49296;48.188;11.566;2022-08-19T04:40:39;19.26;80.09
63202;DHT22;49296;48.188;11.566;2022-08-19T04:43:23;19.20;79.76
63202;DHT22;49296;48.188;11.566;2022-08-19T04:45:51;19.23;79.89
63202;DHT22;49296;48.188;11.566;2022-08-19T04:48:18;19.36;79.35
63202;DHT22;49296;48.188;11.566;2022-08-19T04:50:51;19.42;79.26
63202;DHT22;49296;48.188;11.566;2022-08-19T04:53:23;19.36;79.34
63202;DHT22;49296;48.188;11.566;2022-08-19T04:55:49;19.34;79.53
63202;DHT22;49296;48.188;11.566;2022-08-19T04:58:16;19.25;79.85
63202;DHT22;49296;48.188;11.566;2022-08-19T05:00:43;19.22;79.78
63202;DHT22;49296;48.188;11.566;2022-08-19T05:03:11;19.27;79.73
63202;DHT22;49296;48.188;11.566;2022-08-19T05:05:38;19.27;79.92
63202;DHT22;49296;48.188;11.566;2022-08-19T05:08:05;19.29;79.56
63202;DHT22;49296;48.188;11.566;2022-08-19T05:10:34;19.22;79.51
63202;DHT22;49296;48.188;11.566;2022-08-19T05:13:00;19.22;79.71
63202;DHT22;49296;48.188;11.566;2022-08-19T05:15:27;19.11;80.01
63202;DHT22;49296;48.188;11.566;2022-08-19T05:17:54;19.12;79.85
63202;DHT22;49296;48.188;11.566;2022-08-19T05:20:39;19.15;80.04
63202;DHT22;49296;48.188;11.566;2022-08-19T05:23:23;19.15;80.03
63202;DHT22;49296;48.188;11.566;2022-08-19T05:25:50;19.16;80.04
63202;DHT22;49296;48.188;11.566;2022-08-19T05:28:17;19.29;79.68
63202;DHT22;49296;48.188;11.566;2022-08-19T05:30:43;19.32;79.38
63202;DHT22;49296;48.188;11.566;2022-08-19T05:33:10;19.22;79.75
63202;DHT22;49296;48.188;11.566;2022-08-19T05:35:37;19.20;79.51
63202;DHT22;49296;48.188;11.566;2022-08-19T05:38:05;19.23;79.58
63202;DHT22;49296;48.188;11.566;2022-08-19T05:40:33;19.26;79.45
63202;DHT22;49296;48.188;11.566;2022-08-19T05:43:01;19.27;79.24
63202;DHT22;49296;48.188;11.566;2022-08-19T05:45:27;19.27;79.48
63202;DHT22;49296;48.188;11.566;2022-08-19T05:47:54;19.37;79.06
63202;DHT22;49296;48.188;11.566;2022-08-19T05:50:20;19.39;79.04
63202;DHT22;49296;48.188;11.566;2022-08-19T05:52:47;19.46;78.79
63202;DHT22;49296;48.188;11.566;2022-08-19T05:55:15;19.60;78.29
63202;DHT22;49296;48.188;11.566;2022-08-19T05:57:41;19.49;78.45
63202;DHT22;49296;48.188;11.566;2022-08-19T06:00:08;19.58;78.21
63202;DHT22;49296;48.188;11.566;2022-08-19T06:02:36;19.56;78.50
63202;DHT22;49296;48.188;11.566;2022-08-19T06:05:03;19.57;78.28
63202;DHT22;49296;48.188;11.566;2022-08-19T06:07:31;19.63;78.08
63202;DHT22;49296;48.188;11.566;2022-08-19T06:09:58;19.61;78.14
63202;DHT22;49296;48.188;11.566;2022-08-19T06:12:26;19.79;77.60
63202;DHT22;49296;48.188;11.566;2022-08-19T06:14:55;19.74;77.72
63202;DHT22;49296;48.188;11.566;2022-08-19T06:17:22;19.66;77.96
63202;DHT22;49296;48.188;11.566;2022-08-19T06:19:50;19.64;78.08
63202;DHT22;49296;48.188;11.566;2022-08-19T06:22:16;19.67;77.90
63202;DHT22;49296;48.188;11.566;2022-08-19T06:24:43;19.70;77.80
63202;DHT22;49296;48.188;11.566;2022-08-19T06:27:09;19.56;78.14
63202;DHT22;49296;48.188;11.566;2022-08-19T06:29:37;19.58;78.51
63202;DHT22;49296;48.188;11.566;2022-08-19T06:32:04;19.68;77.98
63202;DHT22;49296;48.188;11.566;2022-08-19T06:34:32;19.67;77.99
63202;DHT22;49296;48.188;11.566;2022-08-19T06:36:59;19.68;78.04
63202;DHT22;49296;48.188;11.566;2022-08-19T06:39:27;19.77;77.87
63202;DHT22;49296;48.188;11.566;2022-08-19T06:41:56;19.75;77.76
63202;DHT22;49296;48.188;11.566;2022-08-19T06:44:24;19.77;77.83
63202;DHT22;49296;48.188;11.566;2022-08-19T06:46:53;19.94;77.31
63202;DHT22;49296;48.188;11.566;2022-08-19T06:49:19;19.68;78.17
63202;DHT22;49296;48.188;11.566;2022-08-19T06:51:47;19.64;78.25
63202;DHT22;49296;48.188;11.566;2022-08-19T06:54:14;19.66;78.34
63202;DHT22;49296;48.188;11.566;2022-08-19T06:56:41;19.60;78.11
63202;DHT22;49296;48.188;11.566;2022-08-19T06:59:09;19.66;78.15
63202;DHT22;49296;48.188;11.566;2022-08-19T07:01:36;19.73;77.89
63202;DHT22;49296;48.188;11.566;2022-08-19T07:04:05;19.85;77.41
63202;DHT22;49296;48.188;11.566;2022-08-19T07:06:32;19.99;77.04
63202;DHT22;49296;48.188;11.566;2022-08-19T07:08:58;19.89;77.27
63202;DHT22;49296;48.188;11.566;2022-08-19T07:11:25;19.86;77.43
63202;DHT22;49296;48.188;11.566;2022-08-19T07:13:51;19.92;77.47
63202;DHT22;49296;48.188;11.566;2022-08-19T07:16:18;19.84;77.68
63202;DHT22;49296;48.188;11.566;2022-08-19T07:18:45;19.92;77.68
63202;DHT22;49296;48.188;11.566;2022-08-19T07:21:14;19.91;78.02
63202;DHT22;49296;48.188;11.566;2022-08-19T07:23:41;20.11;77.07
63202;DHT22;49296;48.188;11.566;2022-08-19T07:26:09;20.02;77.71
63202;DHT22;49296;48.188;11.566;2022-08-19T07:28:36;19.98;78.32
63202;DHT22;49296;48.188;11.566;2022-08-19T07:31:04;19.82;78.75
63202;DHT22;49296;48.188;11.566;2022-08-19T07:33:31;19.89;78.79
63202;DHT22;49296;48.188;11.566;2022-08-19T07:35:58;19.98;79.00
63202;DHT22;49296;48.188;11.566;2022-08-19T07:38:25;19.95;79.28
63202;DHT22;49296;48.188;11.566;2022-08-19T07:40:52;20.13;79.25
63202;DHT22;49296;48.188;11.566;2022-08-19T07:43:19;20.02;78.67
63202;DHT22;49296;48.188;11.566;2022-08-19T07:45:48;20.05;78.33
63202;DHT22;49296;48.188;11.566;2022-08-19T07:48:14;20.26;78.06
63202;DHT22;49296;48.188;11.566;2022-08-19T07:50:40;20.04;78.61
63202;DHT22;49296;48.188;11.566;2022-08-19T07:53:07;20.25;78.48
63202;DHT22;49296;48.188;11.566;2022-08-19T07:55:35;20.13;78.15
63202;DHT22;49296;48.188;11.566;2022-08-19T07:58:01;19.88;79.08
63202;DHT22;49296;48.188;11.566;2022-08-19T08:00:30;19.67;79.80
63202;DHT22;49296;48.188;11.566;2022-08-19T08:02:56;19.60;80.18
63202;DHT22;49296;48.188;11.566;2022-08-19T08:05:23;19.79;79.64
63202;DHT22;49296;48.188;11.566;2022-08-19T08:08:06;19.81;79.56
63202;DHT22;49296;48.188;11.566;2022-08-19T08:11:04;19.70;79.33
63202;DHT22;49296;48.188;11.566;2022-08-19T08:13:30;19.64;79.87
63202;DHT22;49296;48.188;11.566;2022-08-19T08:15:57;19.67;80.00
63202;DHT22;49296;48.188;11.566;2022-08-19T08:18:24;19.70;79.98
63202;DHT22;49296;48.188;11.566;2022-08-19T08:20:51;19.74;79.66
63202;DHT22;49296;48.188;11.566;2022-08-19T08:23:17;19.78;79.31
63202;DHT22;49296;48.188;11.566;2022-08-19T08:25:51;19.95;78.84
63202;DHT22;49296;48.188;11.566;2022-08-19T08:28:19;19.75;79.07
63202;DHT22;49296;48.188;11.566;2022-08-19T08:30:45;19.84;79.10
63202;DHT22;49296;48.188;11.566;2022-08-19T08:33:12;19.73;79.42
63202;DHT22;49296;48.188;11.566;2022-08-19T08:35:39;19.86;79.27
63202;DHT22;49296;48.188;11.566;2022-08-19T08:38:07;19.99;79.08
63202;DHT22;49296;48.188;11.566;2022-08-19T08:40:38;19.92;78.17
63202;DHT22;49296;48.188;11.566;2022-08-19T08:43:06;20.01;78.00
63202;DHT22;49296;48.188;11.566;2022-08-19T08:45:35;20.05;77.80
63202;DHT22;49296;48.188;11.566;2022-08-19T08:48:04;20.15;77.38
63202;DHT22;49296;48.188;11.566;2022-08-19T08:50:49;20.25;77.05
63202;DHT22;49296;48.188;11.566;2022-08-19T08:53:18;20.30;77.18
63202;DHT22;49296;48.188;11.566;2022-08-19T08:55:45;20.47;77.25
63202;DHT22;49296;48.188;11.566;2022-08-19T08:58:13;20.40;77.43
63202;DHT22;49296;48.188;11.566;2022-08-19T09:00:43;20.37;77.76
63202;DHT22;49296;48.188;11.566;2022-08-19T09:03:13;20.15;78.54
63202;DHT22;49296;48.188;11.566;2022-08-19T09:05:44;20.08;78.76
63202;DHT22;49296;48.188;11.566;2022-08-19T09:08:18;20.08;78.83
63202;DHT22;49296;48.188;11.566;2022-08-19T09:10:49;19.98;79.89
63202;DHT22;49296;48.188;11.566;2022-08-19T09:13:18;19.85;79.82
63202;DHT22;49296;48.188;11.566;2022-08-19T09:15:46;19.89;79.69
63202;DHT22;49296;48.188;11.566;2022-08-19T09:18:14;19.96;79.49
63202;DHT22;49296;48.188;11.566;2022-08-19T09:20:41;19.95;79.45
63202;DHT22;49296;48.188;11.566;2022-08-19T09:23:08;20.12;78.91
63202;DHT22;49296;48.188;11.566;2022-08-19T09:25:37;20.18;78.88
63202;DHT22;49296;48.188;11.566;2022-08-19T09:28:05;20.16;78.53
63202;DHT22;49296;48.188;11.566;2022-08-19T09:30:33;20.05;78.63
63202;DHT22;49296;48.188;11.566;2022-08-19T09:32:59;19.98;79.08
63202;DHT22;49296;48.188;11.566;2022-08-19T09:35:27;19.98;79.14
63202;DHT22;49296;48.188;11.566;2022-08-19T09:37:54;20.01;79.13
63202;DHT22;49296;48.188;11.566;2022-08-19T09:40:22;19.94;79.31
63202;DHT22;49296;48.188;11.566;2022-08-19T09:42:50;20.06;79.31
63202;DHT22;49296;48.188;11.566;2022-08-19T09:45:17;20.05;79.16
63202;DHT22;49296;48.188;11.566;2022-08-19T09:47:46;19.92;79.47
63202;DHT22;49296;48.188;11.566;2022-08-19T09:50:12;20.02;79.18
63202;DHT22;49296;48.188;11.566;2022-08-19T09:52:39;20.08;79.25
63202;DHT22;49296;48.188;11.566;2022-08-19T09:55:08;20.02;79.87
63202;DHT22;49296;48.188;11.566;2022-08-19T09:57:34;20.01;80.16
63202;DHT22;49296;48.188;11.566;2022-08-19T10:00:03;20.13;80.31
63202;DHT22;49296;48.188;11.566;2022-08-19T10:02:30;20.11;80.19
63202;DHT22;49296;48.188;11.566;2022-08-19T10:04:56;20.09;80.59
63202;DHT22;49296;48.188;11.566;2022-08-19T10:07:40;20.28;80.35
63202;DHT22;49296;48.188;11.566;2022-08-19T10:10:07;20.09;81.06
63202;DHT22;49296;48.188;11.566;2022-08-19T10:12:34;20.18;80.99
63202;DHT22;49296;48.188;11.566;2022-08-19T10:15:03;20.33;81.08
63202;DHT22;49296;48.188;11.566;2022-08-19T10:17:31;20.23;80.91
63202;DHT22;49296;48.188;11.566;2022-08-19T10:20:00;20.15;81.61
63202;DHT22;49296;48.188;11.566;2022-08-19T10:22:27;20.15;81.24
63202;DHT22;49296;48.188;11.566;2022-08-19T10:24:54;20.11;81.72
63202;DHT22;49296;48.188;11.566;2022-08-19T10:27:21;20.33;81.01
63202;DHT22;49296;48.188;11.566;2022-08-19T10:29:48;20.58;80.88
63202;DHT22;49296;48.188;11.566;2022-08-19T10:32:16;20.63;79.24
63202;DHT22;49296;48.188;11.566;2022-08-19T10:34:42;20.82;80.13
63202;DHT22;49296;48.188;11.566;2022-08-19T10:37:09;20.94;78.69
63202;DHT22;49296;48.188;11.566;2022-08-19T10:39:35;20.91;79.08
63202;DHT22;49296;48.188;11.566;2022-08-19T10:42:04;20.99;79.41
63202;DHT22;49296;48.188;11.566;2022-08-19T10:44:31;21.08;79.04
63202;DHT22;49296;48.188;11.566;2022-08-19T10:46:58;21.10;79.61
63202;DHT22;49296;48.188;11.566;2022-08-19T10:49:26;21.30;78.90
63202;DHT22;49296;48.188;11.566;2022-08-19T10:51:53;21.43;77.65
63202;DHT22;49296;48.188;11.566;2022-08-19T10:54:52;21.34;77.27
63202;DHT22;49296;48.188;11.566;2022-08-19T10:57:36;21.42;76.93
63202;DHT22;49296;48.188;11.566;2022-08-19T11:00:03;21.51;75.96
63202;DHT22;49296;48.188;11.566;2022-08-19T11:02:29;21.37;75.82
63202;DHT22;49296;48.188;11.566;2022-08-19T11:04:59;21.40;76.16
63202;DHT22;49296;48.188;11.566;2022-08-19T11:07:25;21.39;76.40
63202;DHT22;49296;48.188;11.566;2022-08-19T11:09:52;21.46;76.65
63202;DHT22;49296;48.188;11.566;2022-08-19T11:12:18;21.51;76.05
63202;DHT22;49296;48.188;11.566;2022-08-19T11:14:45;21.43;75.78
63202;DHT22;49296;48.188;11.566;2022-08-19T11:17:14;21.46;75.47
63202;DHT22;49296;48.188;11.566;2022-08-19T11:19:41;21.49;74.22
63202;DHT22;49296;48.188;11.566;2022-08-19T11:22:09;21.50;74.10
63202;DHT22;49296;48.188;11.566;2022-08-19T11:24:36;21.53;74.55
63202;DHT22;49296;48.188;11.566;2022-08-19T11:27:04;21.61;74.04
63202;DHT22;49296;48.188;11.566;2022-08-19T11:29:31;21.88;73.98
63202;DHT22;49296;48.188;11.566;2022-08-19T11:31:59;21.98;74.03
63202;DHT22;49296;48.188;11.566;2022-08-19T11:34:26;21.87;73.93
63202;DHT22;49296;48.188;11.566;2022-08-19T11:36:55;21.84;74.22
63202;DHT22;49296;48.188;11.566;2022-08-19T11:39:25;21.68;74.03
63202;DHT22;49296;48.188;11.566;2022-08-19T11:41:52;21.40;75.04
63202;DHT22;49296;48.188;11.566;2022-08-19T11:44:19;21.16;76.30
63202;DHT22;49296;48.188;11.566;2022-08-19T11:46:45;21.20;74.64
63202;DHT22;49296;48.188;11.566;2022-08-19T11:49:12;21.25;74.85
63202;DHT22;49296;48.188;11.566;2022-08-19T11:51:39;21.25;74.86
63202;DHT22;49296;48.188;11.566;2022-08-19T11:54:07;21.42;75.09
63202;DHT22;49296;48.188;11.566;2022-08-19T11:56:36;21.42;74.99
63202;DHT22;49296;48.188;11.566;2022-08-19T11:59:02;21.49;75.10
63202;DHT22;49296;48.188;11.566;2022-08-19T12:01:29;21.43;74.86
63202;DHT22;49296;48.188;11.566;2022-08-19T12:03:56;21.33;75.13
63202;DHT22;49296;48.188;11.566;2022-08-19T12:06:24;21.40;74.92
63202;DHT22;49296;48.188;11.566;2022-08-19T12:08:53;21.32;75.19
63202;DHT22;49296;48.188;11.566;2022-08-19T12:11:20;21.51;74.27
63202;DHT22;49296;48.188;11.566;2022-08-19T12:13:48;21.33;74.87
63202;DHT22;49296;48.188;11.566;2022-08-19T12:16:17;21.40;74.99
63202;DHT22;49296;48.188;11.566;2022-08-19T12:24:58;21.73;72.81
63202;DHT22;49296;48.188;11.566;2022-08-19T12:27:36;21.78;72.86
63202;DHT22;49296;48.188;11.566;2022-08-19T12:33:07;21.51;73.45
63202;DHT22;49296;48.188;11.566;2022-08-19T12:35:33;21.51;73.88
63202;DHT22;49296;48.188;11.566;2022-08-19T12:38:00;21.50;73.12
63202;DHT22;49296;48.188;11.566;2022-08-19T12:40:27;21.70;72.28
63202;DHT22;49296;48.188;11.566;2022-08-19T12:42:54;22.02;71.94
63202;DHT22;49296;48.188;11.566;2022-08-19T12:45:20;22.46;70.38
63202;DHT22;49296;48.188;11.566;2022-08-19T12:47:47;22.67;69.37
63202;DHT22;49296;48.188;11.566;2022-08-19T12:50:15;22.69;69.10
63202;DHT22;49296;48.188;11.566;2022-08-19T12:52:42;22.48;69.80
63202;DHT22;49296;48.188;11.566;2022-08-19T12:55:09;22.60;69.01
63202;DHT22;49296;48.188;11.566;2022-08-19T12:57:36;22.51;69.23
63202;DHT22;49296;48.188;11.566;2022-08-19T13:00:04;22.47;69.65
63202;DHT22;49296;48.188;11.566;2022-08-19T13:02:32;22.51;69.67
63202;DHT22;49296;48.188;11.566;2022-08-19T13:05:00;22.46;69.40
63202;DHT22;49296;48.188;11.566;2022-08-19T13:07:28;22.19;70.39
63202;DHT22;49296;48.188;11.566;2022-08-19T13:09:55;22.32;69.52
63202;DHT22;49296;48.188;11.566;2022-08-19T13:12:22;22.76;68.38
63202;DHT22;49296;48.188;11.566;2022-08-19T13:14:51;22.88;68.86
63202;DHT22;49296;48.188;11.566;2022-08-19T13:17:18;23.33;67.38
63202;DHT22;49296;48.188;11.566;2022-08-19T13:19:44;23.60;66.25
63202;DHT22;49296;48.188;11.566;2022-08-19T13:22:11;23.71;66.20
63202;DHT22;49296;48.188;11.566;2022-08-19T13:24:39;23.78;65.58
63202;DHT22;49296;48.188;11.566;2022-08-19T13:27:05;23.67;66.12
63202;DHT22;49296;48.188;11.566;2022-08-19T13:29:32;23.34;66.95
63202;DHT22;49296;48.188;11.566;2022-08-19T13:32:15;23.49;66.54
63202;DHT22;49296;48.188;11.566;2022-08-19T13:34:59;23.58;66.80
63202;DHT22;49296;48.188;11.566;2022-08-19T13:37:26;23.10;67.78
63202;DHT22;49296;48.188;11.566;2022-08-19T13:40:20;22.54;69.45
63202;DHT22;49296;48.188;11.566;2022-08-19T13:42:50;22.40;70.98
63202;DHT22;49296;48.188;11.566;2022-08-19T13:45:18;22.17;71.21
63202;DHT22;49296;48.188;11.566;2022-08-19T13:47:45;22.06;71.56
63202;DHT22;49296;48.188;11.566;2022-08-19T13:50:13;22.37;70.67
63202;DHT22;49296;48.188;11.566;2022-08-19T13:52:40;22.17;71.05
63202;DHT22;49296;48.188;11.566;2022-08-19T13:55:07;21.98;71.86
63202;DHT22;49296;48.188;11.566;2022-08-19T13:57:36;21.81;72.82
63202;DHT22;49296;48.188;11.566;2022-08-19T14:00:05;21.53;73.90
63202;DHT22;49296;48.188;11.566;2022-08-19T14:02:33;21.53;74.46
63202;DHT22;49296;48.188;11.566;2022-08-19T14:05:00;21.60;74.36
63202;DHT22;49296;48.188;11.566;2022-08-19T14:07:26;21.68;74.26
63202;DHT22;49296;48.188;11.566;2022-08-19T14:09:53;21.82;73.13
63202;DHT22;49296;48.188;11.566;2022-08-19T14:12:19;22.37;71.31
63202;DHT22;49296;48.188;11.566;2022-08-19T14:14:48;22.87;69.79
63202;DHT22;49296;48.188;11.566;2022-08-19T14:17:15;23.78;66.81
63202;DHT22;49296;48.188;11.566;2022-08-19T14:19:41;23.20;68.09
63202;DHT22;49296;48.188;11.566;2022-08-19T14:22:08;22.65;69.25
63202;DHT22;49296;48.188;11.566;2022-08-19T14:24:36;22.53;70.24
63202;DHT22;49296;48.188;11.566;2022-08-19T14:27:03;22.35;70.18
63202;DHT22;49296;48.188;11.566;2022-08-19T14:29:29;22.19;71.33
63202;DHT22;49296;48.188;11.566;2022-08-19T14:31:57;22.20;70.55
63202;DHT22;49296;48.188;11.566;2022-08-19T14:34:25;22.04;71.05
63202;DHT22;49296;48.188;11.566;2022-08-19T14:36:52;21.94;70.50
63202;DHT22;49296;48.188;11.566;2022-08-19T14:39:19;21.87;71.33
63202;DHT22;49296;48.188;11.566;2022-08-19T14:41:45;21.94;71.36
63202;DHT22;49296;48.188;11.566;2022-08-19T14:44:12;21.92;71.47
63202;DHT22;49296;48.188;11.566;2022-08-19T14:46:39;21.91;71.40
63202;DHT22;49296;48.188;11.566;2022-08-19T14:49:07;22.08;70.93
63202;DHT22;49296;48.188;11.566;2022-08-19T14:51:33;22.20;70.41
63202;DHT22;49296;48.188;11.566;2022-08-19T14:54:00;22.29;70.18
63202;DHT22;49296;48.188;11.566;2022-08-19T14:56:27;22.60;69.08
63202;DHT22;49296;48.188;11.566;2022-08-19T14:58:54;23.64;66.26
63202;DHT22;49296;48.188;11.566;2022-08-19T15:01:24;23.43;66.44
63202;DHT22;49296;48.188;11.566;2022-08-19T15:03:51;23.12;67.08
63202;DHT22;49296;48.188;11.566;2022-08-19T15:06:21;23.39;66.61
63202;DHT22;49296;48.188;11.566;2022-08-19T15:09:01;23.15;66.09
63202;DHT22;49296;48.188;11.566;2022-08-19T15:11:28;22.82;66.65
63202;DHT22;49296;48.188;11.566;2022-08-19T15:13:55;22.35;68.30
63202;DHT22;49296;48.188;11.566;2022-08-19T15:16:23;22.26;69.03
63202;DHT22;49296;48.188;11.566;2022-08-19T15:18:50;22.06;70.20
63202;DHT22;49296;48.188;11.566;2022-08-19T15:21:17;22.24;69.84
63202;DHT22;49296;48.188;11.566;2022-08-19T15:23:45;22.10;70.52
63202;DHT22;49296;48.188;11.566;2022-08-19T15:26:12;22.10;70.62
63202;DHT22;49296;48.188;11.566;2022-08-19T15:28:40;21.67;71.70